sensor_id;sensor_type;location;lat;lon;timestamp;P1;durP1;ratioP1;P2;durP2;ratioP2
2320;SDS011;15376;48.540;9.268;2023-10-19T00:01:10;28.47;;;24.60;;
2320;SDS011;15376;48.540;9.268;2023-10-19T00:03:36;29.60;;;26.50;;
2320;SDS011;15376;48.540;9.268;2023-10-19T00:06:02;30.47;;;27.00;;
2320;SDS011;15376;48.540;9.268;2023-10-19T00:08:28;28.87;;;24.20;;
2320;SDS011;15376;48.540;9.268;2023-10-19T00:11:01;33.13;;;25.80;;
2320;SDS011;15376;48.540;9.268;2023-10-19T00:13:27;30.50;;;24.13;;
2320;SDS011;15376;48.540;9.268;2023-10-19T00:15:54;31.73;;;28.30;;
2320;SDS011;15376;48.540;9.268;2023-10-19T00:18:22;33.73;;;24.40;;
2320;SDS011;15376;48.540;9.268;2023-10-19T00:20:49;31.43;;;25.40;;
2320;SDS011;15376;48.540;9.268;2023-10-19T00:23:24;27.63;;;24.73;;
2320;SDS011;15376;48.540;9.268;2023-10-19T00:25:54;28.07;;;25.07;;
2320;SDS011;15376;48.540;9.268;2023-10-19T00:28:23;27.83;;;24.80;;
2320;SDS011;15376;48.540;9.268;2023-10-19T00:30:51;29.13;;;26.13;;
2320;SDS011;15376;48.540;9.268;2023-10-19T00:33:18;24.93;;;22.27;;
2320;SDS011;15376;48.540;9.268;2023-10-19T00:35:45;30.20;;;25.70;;
2320;SDS011;15376;48.540;9.268;2023-10-19T00:38:37;28.37;;;25.37;;
2320;SDS011;15376;48.540;9.268;2023-10-19T00:41:04;27.23;;;23.93;;
2320;SDS011;15376;48.540;9.268;2023-10-19T00:43:36;34.20;;;24.80;;
2320;SDS011;15376;48.540;9.268;2023-10-19T00:46:07;27.40;;;24.60;;
2320;SDS011;15376;48.540;9.268;2023-10-19T00:48:56;26.57;;;23.67;;
2320;SDS011;15376;48.540;9.268;2023-10-19T00:51:26;27.10;;;22.93;;
2320;SDS011;15376;48.540;9.268;2023-10-19T00:53:58;26.97;;;24.03;;
2320;SDS011;15376;48.540;9.268;2023-10-19T00:56:33;29.63;;;24.70;;
2320;SDS011;15376;48.540;9.268;2023-10-19T00:58:58;27.87;;;23.37;;
2320;SDS011;15376;48.540;9.268;2023-10-19T01:01:28;28.43;;;24.53;;
2320;SDS011;15376;48.540;9.268;2023-10-19T01:03:54;27.70;;;24.83;;
2320;SDS011;15376;48.540;9.268;2023-10-19T01:06:24;29.20;;;24.03;;
2320;SDS011;15376;48.540;9.268;2023-10-19T01:08:50;29.70;;;25.03;;
2320;SDS011;15376;48.540;9.268;2023-10-19T01:11:17;29.20;;;26.23;;
2320;SDS011;15376;48.540;9.268;2023-10-19T01:13:46;31.47;;;24.50;;
2320;SDS011;15376;48.540;9.268;2023-10-19T01:16:16;30.13;;;26.30;;
2320;SDS011;15376;48.540;9.268;2023-10-19T01:18:51;29.63;;;25.83;;
2320;SDS011;15376;48.540;9.268;2023-10-19T01:21:22;26.77;;;23.90;;
2320;SDS011;15376;48.540;9.268;2023-10-19T01:23:52;26.70;;;23.90;;
2320;SDS011;15376;48.540;9.268;2023-10-19T01:26:18;30.50;;;26.53;;
2320;SDS011;15376;48.540;9.268;2023-10-19T01:28:51;31.40;;;25.00;;
2320;SDS011;15376;48.540;9.268;2023-10-19T01:31:18;28.40;;;25.03;;
2320;SDS011;15376;48.540;9.268;2023-10-19T01:33:52;27.07;;;23.60;;
2320;SDS011;15376;48.540;9.268;2023-10-19T01:36:20;26.63;;;23.83;;
2320;SDS011;15376;48.540;9.268;2023-10-19T01:38:50;26.60;;;23.40;;
2320;SDS011;15376;48.540;9.268;2023-10-19T01:41:19;29.47;;;25.07;;
2320;SDS011;15376;48.540;9.268;2023-10-19T01:43:49;27.67;;;22.27;;
2320;SDS011;15376;48.540;9.268;2023-10-19T01:46:18;26.50;;;20.37;;
2320;SDS011;15376;48.540;9.268;2023-10-19T01:48:54;23.77;;;20.50;;
2320;SDS011;15376;48.540;9.268;2023-10-19T01:51:23;23.67;;;20.60;;
2320;SDS011;15376;48.540;9.268;2023-10-19T01:53:51;23.10;;;18.70;;
2320;SDS011;15376;48.540;9.268;2023-10-19T01:56:18;28.63;;;20.80;;
2320;SDS011;15376;48.540;9.268;2023-10-19T01:58:44;21.20;;;18.87;;
2320;SDS011;15376;48.540;9.268;2023-10-19T02:01:15;20.97;;;18.30;;
2320;SDS011;15376;48.540;9.268;2023-10-19T02:03:53;20.87;;;18.50;;
2320;SDS011;15376;48.540;9.268;2023-10-19T02:06:26;21.27;;;18.70;;
2320;SDS011;15376;48.540;9.268;2023-10-19T02:09:01;21.67;;;19.30;;
2320;SDS011;15376;48.540;9.268;2023-10-19T02:11:34;21.37;;;18.20;;
2320;SDS011;15376;48.540;9.268;2023-10-19T02:14:03;19.70;;;17.73;;
2320;SDS011;15376;48.540;9.268;2023-10-19T02:16:35;25.43;;;20.37;;
2320;SDS011;15376;48.540;9.268;2023-10-19T02:19:02;26.93;;;21.97;;
2320;SDS011;15376;48.540;9.268;2023-10-19T02:21:27;25.17;;;21.80;;
2320;SDS011;15376;48.540;9.268;2023-10-19T02:24:04;25.90;;;23.00;;
2320;SDS011;15376;48.540;9.268;2023-10-19T02:26:32;24.47;;;21.87;;
2320;SDS011;15376;48.540;9.268;2023-10-19T02:28:58;24.23;;;21.63;;
2320;SDS011;15376;48.540;9.268;2023-10-19T02:31:24;26.33;;;21.87;;
2320;SDS011;15376;48.540;9.268;2023-10-19T02:33:53;26.20;;;22.50;;
2320;SDS011;15376;48.540;9.268;2023-10-19T02:36:28;25.90;;;21.60;;
2320;SDS011;15376;48.540;9.268;2023-10-19T02:38:58;24.57;;;21.37;;
2320;SDS011;15376;48.540;9.268;2023-10-19T02:41:34;27.80;;;22.10;;
2320;SDS011;15376;48.540;9.268;2023-10-19T02:44:10;23.10;;;20.60;;
2320;SDS011;15376;48.540;9.268;2023-10-19T02:46:44;22.73;;;20.33;;
2320;SDS011;15376;48.540;9.268;2023-10-19T02:49:11;24.43;;;21.57;;
2320;SDS011;15376;48.540;9.268;2023-10-19T02:51:43;29.93;;;21.20;;
2320;SDS011;15376;48.540;9.268;2023-10-19T02:54:10;25.57;;;22.87;;
2320;SDS011;15376;48.540;9.268;2023-10-19T02:56:47;24.70;;;21.57;;
2320;SDS011;15376;48.540;9.268;2023-10-19T02:59:14;24.57;;;21.53;;
2320;SDS011;15376;48.540;9.268;2023-10-19T03:01:41;27.13;;;22.70;;
2320;SDS011;15376;48.540;9.268;2023-10-19T03:04:09;26.00;;;21.40;;
2320;SDS011;15376;48.540;9.268;2023-10-19T03:06:37;25.77;;;22.43;;
2320;SDS011;15376;48.540;9.268;2023-10-19T03:09:05;27.53;;;24.13;;
2320;SDS011;15376;48.540;9.268;2023-10-19T03:11:45;27.03;;;22.90;;
2320;SDS011;15376;48.540;9.268;2023-10-19T03:14:10;38.87;;;23.73;;
2320;SDS011;15376;48.540;9.268;2023-10-19T03:16:37;30.10;;;22.80;;
2320;SDS011;15376;48.540;9.268;2023-10-19T03:19:06;30.40;;;24.00;;
2320;SDS011;15376;48.540;9.268;2023-10-19T03:21:32;26.43;;;21.53;;
2320;SDS011;15376;48.540;9.268;2023-10-19T03:23:59;27.67;;;22.97;;
2320;SDS011;15376;48.540;9.268;2023-10-19T03:26:37;29.13;;;24.30;;
2320;SDS011;15376;48.540;9.268;2023-10-19T03:29:03;30.53;;;25.10;;
2320;SDS011;15376;48.540;9.268;2023-10-19T03:31:39;31.57;;;24.80;;
2320;SDS011;15376;48.540;9.268;2023-10-19T03:34:12;28.07;;;23.37;;
2320;SDS011;15376;48.540;9.268;2023-10-19T03:36:38;26.37;;;22.23;;
2320;SDS011;15376;48.540;9.268;2023-10-19T03:39:05;25.73;;;23.03;;
2320;SDS011;15376;48.540;9.268;2023-10-19T03:41:40;24.77;;;22.07;;
2320;SDS011;15376;48.540;9.268;2023-10-19T03:44:12;29.90;;;22.70;;
2320;SDS011;15376;48.540;9.268;2023-10-19T03:46:59;38.60;;;30.00;;
2320;SDS011;15376;48.540;9.268;2023-10-19T03:49:29;62.97;;;25.70;;
2320;SDS011;15376;48.540;9.268;2023-10-19T03:52:02;24.83;;;21.57;;
2320;SDS011;15376;48.540;9.268;2023-10-19T03:54:48;36.63;;;25.07;;
2320;SDS011;15376;48.540;9.268;2023-10-19T03:57:15;26.43;;;21.90;;
2320;SDS011;15376;48.540;9.268;2023-10-19T03:59:54;30.27;;;21.50;;
2320;SDS011;15376;48.540;9.268;2023-10-19T04:02:22;27.23;;;22.97;;
2320;SDS011;15376;48.540;9.268;2023-10-19T04:04:48;25.03;;;21.50;;
2320;SDS011;15376;48.540;9.268;2023-10-19T04:07:17;27.00;;;22.43;;
2320;SDS011;15376;48.540;9.268;2023-10-19T04:09:43;27.80;;;23.13;;
2320;SDS011;15376;48.540;9.268;2023-10-19T04:12:27;26.77;;;21.30;;
2320;SDS011;15376;48.540;9.268;2023-10-19T04:14:56;26.83;;;21.43;;
2320;SDS011;15376;48.540;9.268;2023-10-19T04:17:22;25.10;;;21.60;;
2320;SDS011;15376;48.540;9.268;2023-10-19T04:19:48;22.93;;;20.50;;
2320;SDS011;15376;48.540;9.268;2023-10-19T04:22:14;31.53;;;22.73;;
2320;SDS011;15376;48.540;9.268;2023-10-19T04:24:48;27.40;;;23.07;;
2320;SDS011;15376;48.540;9.268;2023-10-19T04:27:14;26.23;;;20.73;;
2320;SDS011;15376;48.540;9.268;2023-10-19T04:29:40;24.23;;;19.67;;
2320;SDS011;15376;48.540;9.268;2023-10-19T04:32:08;26.63;;;22.07;;
2320;SDS011;15376;48.540;9.268;2023-10-19T04:34:34;30.63;;;21.30;;
2320;SDS011;15376;48.540;9.268;2023-10-19T04:37:01;23.07;;;20.10;;
2320;SDS011;15376;48.540;9.268;2023-10-19T04:39:28;22.13;;;19.80;;
2320;SDS011;15376;48.540;9.268;2023-10-19T04:41:55;25.63;;;20.43;;
2320;SDS011;15376;48.540;9.268;2023-10-19T04:44:20;26.43;;;21.23;;
2320;SDS011;15376;48.540;9.268;2023-10-19T04:46:46;23.70;;;20.57;;
2320;SDS011;15376;48.540;9.268;2023-10-19T04:49:11;26.37;;;20.37;;
2320;SDS011;15376;48.540;9.268;2023-10-19T04:51:37;21.43;;;18.43;;
2320;SDS011;15376;48.540;9.268;2023-10-19T04:54:04;21.63;;;18.17;;
2320;SDS011;15376;48.540;9.268;2023-10-19T04:56:30;29.40;;;19.13;;
2320;SDS011;15376;48.540;9.268;2023-10-19T04:58:57;20.47;;;18.27;;
2320;SDS011;15376;48.540;9.268;2023-10-19T05:01:22;23.00;;;18.57;;
2320;SDS011;15376;48.540;9.268;2023-10-19T05:03:47;23.37;;;18.17;;
2320;SDS011;15376;48.540;9.268;2023-10-19T05:06:13;25.47;;;17.57;;
2320;SDS011;15376;48.540;9.268;2023-10-19T05:08:38;23.33;;;19.27;;
2320;SDS011;15376;48.540;9.268;2023-10-19T05:11:04;16.77;;;14.57;;
2320;SDS011;15376;48.540;9.268;2023-10-19T05:13:30;17.47;;;15.50;;
2320;SDS011;15376;48.540;9.268;2023-10-19T05:15:56;21.23;;;18.47;;
2320;SDS011;15376;48.540;9.268;2023-10-19T05:18:24;24.03;;;18.80;;
2320;SDS011;15376;48.540;9.268;2023-10-19T05:20:50;24.27;;;17.67;;
2320;SDS011;15376;48.540;9.268;2023-10-19T05:23:20;19.87;;;16.60;;
2320;SDS011;15376;48.540;9.268;2023-10-19T05:25:49;20.20;;;16.93;;
2320;SDS011;15376;48.540;9.268;2023-10-19T05:28:18;18.00;;;15.13;;
2320;SDS011;15376;48.540;9.268;2023-10-19T05:30:44;18.37;;;15.77;;
2320;SDS011;15376;48.540;9.268;2023-10-19T05:33:10;17.30;;;14.10;;
2320;SDS011;15376;48.540;9.268;2023-10-19T05:35:35;19.73;;;14.20;;
2320;SDS011;15376;48.540;9.268;2023-10-19T05:38:05;18.80;;;15.60;;
2320;SDS011;15376;48.540;9.268;2023-10-19T05:40:31;17.97;;;14.47;;
2320;SDS011;15376;48.540;9.268;2023-10-19T05:43:00;23.20;;;15.13;;
2320;SDS011;15376;48.540;9.268;2023-10-19T05:45:29;21.10;;;15.77;;
2320;SDS011;15376;48.540;9.268;2023-10-19T05:47:57;17.50;;;14.33;;
2320;SDS011;15376;48.540;9.268;2023-10-19T05:50:23;17.77;;;15.17;;
2320;SDS011;15376;48.540;9.268;2023-10-19T05:52:49;21.13;;;17.43;;
2320;SDS011;15376;48.540;9.268;2023-10-19T05:55:14;21.80;;;17.73;;
2320;SDS011;15376;48.540;9.268;2023-10-19T05:57:40;20.63;;;15.37;;
2320;SDS011;15376;48.540;9.268;2023-10-19T06:00:09;17.80;;;14.70;;
2320;SDS011;15376;48.540;9.268;2023-10-19T06:02:42;18.80;;;15.97;;
2320;SDS011;15376;48.540;9.268;2023-10-19T06:05:09;19.43;;;15.70;;
2320;SDS011;15376;48.540;9.268;2023-10-19T06:07:35;18.90;;;15.60;;
2320;SDS011;15376;48.540;9.268;2023-10-19T06:10:04;18.30;;;16.20;;
2320;SDS011;15376;48.540;9.268;2023-10-19T06:12:31;20.40;;;15.10;;
2320;SDS011;15376;48.540;9.268;2023-10-19T06:14:57;14.80;;;13.30;;
2320;SDS011;15376;48.540;9.268;2023-10-19T06:17:22;18.57;;;14.10;;
2320;SDS011;15376;48.540;9.268;2023-10-19T06:19:48;15.43;;;13.63;;
2320;SDS011;15376;48.540;9.268;2023-10-19T06:22:14;19.60;;;14.00;;
2320;SDS011;15376;48.540;9.268;2023-10-19T06:24:41;13.90;;;12.50;;
2320;SDS011;15376;48.540;9.268;2023-10-19T06:27:06;26.67;;;13.70;;
2320;SDS011;15376;48.540;9.268;2023-10-19T06:29:32;14.93;;;13.40;;
2320;SDS011;15376;48.540;9.268;2023-10-19T06:31:57;19.83;;;13.90;;
2320;SDS011;15376;48.540;9.268;2023-10-19T06:34:22;22.00;;;14.97;;
2320;SDS011;15376;48.540;9.268;2023-10-19T06:36:48;16.40;;;14.63;;
2320;SDS011;15376;48.540;9.268;2023-10-19T06:39:15;17.33;;;14.67;;
2320;SDS011;15376;48.540;9.268;2023-10-19T06:41:42;15.73;;;13.60;;
2320;SDS011;15376;48.540;9.268;2023-10-19T06:44:08;20.60;;;15.70;;
2320;SDS011;15376;48.540;9.268;2023-10-19T06:46:33;16.43;;;14.73;;
2320;SDS011;15376;48.540;9.268;2023-10-19T06:49:01;15.73;;;13.47;;
2320;SDS011;15376;48.540;9.268;2023-10-19T06:51:26;15.30;;;13.80;;
2320;SDS011;15376;48.540;9.268;2023-10-19T06:53:52;17.90;;;14.97;;
2320;SDS011;15376;48.540;9.268;2023-10-19T06:56:17;19.70;;;15.50;;
2320;SDS011;15376;48.540;9.268;2023-10-19T06:58:43;19.40;;;16.63;;
2320;SDS011;15376;48.540;9.268;2023-10-19T07:01:09;18.80;;;16.83;;
2320;SDS011;15376;48.540;9.268;2023-10-19T07:03:34;22.10;;;16.60;;
2320;SDS011;15376;48.540;9.268;2023-10-19T07:06:00;22.17;;;16.17;;
2320;SDS011;15376;48.540;9.268;2023-10-19T07:08:27;21.10;;;16.93;;
2320;SDS011;15376;48.540;9.268;2023-10-19T07:10:53;19.60;;;16.97;;
2320;SDS011;15376;48.540;9.268;2023-10-19T07:13:18;20.67;;;15.20;;
2320;SDS011;15376;48.540;9.268;2023-10-19T07:15:45;19.03;;;15.00;;
2320;SDS011;15376;48.540;9.268;2023-10-19T07:18:11;17.87;;;15.97;;
2320;SDS011;15376;48.540;9.268;2023-10-19T07:20:37;19.50;;;16.90;;
2320;SDS011;15376;48.540;9.268;2023-10-19T07:23:04;17.23;;;15.50;;
2320;SDS011;15376;48.540;9.268;2023-10-19T07:25:38;20.37;;;17.20;;
2320;SDS011;15376;48.540;9.268;2023-10-19T07:28:08;21.47;;;16.07;;
2320;SDS011;15376;48.540;9.268;2023-10-19T07:30:40;28.93;;;23.83;;
2320;SDS011;15376;48.540;9.268;2023-10-19T07:33:09;23.83;;;18.47;;
2320;SDS011;15376;48.540;9.268;2023-10-19T07:35:36;20.30;;;18.07;;
2320;SDS011;15376;48.540;9.268;2023-10-19T07:38:07;27.77;;;20.17;;
2320;SDS011;15376;48.540;9.268;2023-10-19T07:40:33;24.73;;;18.33;;
2320;SDS011;15376;48.540;9.268;2023-10-19T07:42:59;26.57;;;18.23;;
2320;SDS011;15376;48.540;9.268;2023-10-19T07:45:25;26.70;;;20.50;;
2320;SDS011;15376;48.540;9.268;2023-10-19T07:47:50;27.33;;;21.10;;
2320;SDS011;15376;48.540;9.268;2023-10-19T07:50:16;25.27;;;21.10;;
2320;SDS011;15376;48.540;9.268;2023-10-19T07:52:42;20.70;;;18.70;;
2320;SDS011;15376;48.540;9.268;2023-10-19T07:55:08;19.37;;;16.90;;
2320;SDS011;15376;48.540;9.268;2023-10-19T07:57:34;21.47;;;18.70;;
2320;SDS011;15376;48.540;9.268;2023-10-19T07:59:59;23.13;;;18.63;;
2320;SDS011;15376;48.540;9.268;2023-10-19T08:02:25;22.00;;;17.53;;
2320;SDS011;15376;48.540;9.268;2023-10-19T08:04:50;16.67;;;14.40;;
2320;SDS011;15376;48.540;9.268;2023-10-19T08:07:17;16.73;;;14.80;;
2320;SDS011;15376;48.540;9.268;2023-10-19T08:09:42;16.20;;;14.60;;
2320;SDS011;15376;48.540;9.268;2023-10-19T08:12:09;15.13;;;13.57;;
2320;SDS011;15376;48.540;9.268;2023-10-19T08:14:35;19.20;;;15.37;;
2320;SDS011;15376;48.540;9.268;2023-10-19T08:17:00;21.20;;;13.40;;
2320;SDS011;15376;48.540;9.268;2023-10-19T08:19:29;13.07;;;11.83;;
2320;SDS011;15376;48.540;9.268;2023-10-19T08:21:56;18.43;;;14.53;;
2320;SDS011;15376;48.540;9.268;2023-10-19T08:24:22;13.77;;;12.33;;
2320;SDS011;15376;48.540;9.268;2023-10-19T08:26:48;14.90;;;13.40;;
2320;SDS011;15376;48.540;9.268;2023-10-19T08:29:15;15.07;;;12.23;;
2320;SDS011;15376;48.540;9.268;2023-10-19T08:31:43;14.03;;;12.23;;
2320;SDS011;15376;48.540;9.268;2023-10-19T08:34:10;18.40;;;15.00;;
2320;SDS011;15376;48.540;9.268;2023-10-19T08:36:36;27.97;;;17.00;;
2320;SDS011;15376;48.540;9.268;2023-10-19T08:39:04;13.27;;;10.53;;
2320;SDS011;15376;48.540;9.268;2023-10-19T08:41:31;18.60;;;13.60;;
2320;SDS011;15376;48.540;9.268;2023-10-19T08:44:00;18.63;;;14.40;;
2320;SDS011;15376;48.540;9.268;2023-10-19T08:46:27;12.37;;;10.40;;
2320;SDS011;15376;48.540;9.268;2023-10-19T08:48:53;11.37;;;10.30;;
2320;SDS011;15376;48.540;9.268;2023-10-19T08:51:21;11.37;;;10.27;;
2320;SDS011;15376;48.540;9.268;2023-10-19T08:53:48;12.50;;;10.93;;
2320;SDS011;15376;48.540;9.268;2023-10-19T08:56:14;13.03;;;11.63;;
2320;SDS011;15376;48.540;9.268;2023-10-19T08:58:41;11.47;;;10.43;;
2320;SDS011;15376;48.540;9.268;2023-10-19T09:01:06;14.50;;;12.40;;
2320;SDS011;15376;48.540;9.268;2023-10-19T09:03:34;14.57;;;11.93;;
2320;SDS011;15376;48.540;9.268;2023-10-19T09:06:01;13.30;;;12.00;;
2320;SDS011;15376;48.540;9.268;2023-10-19T09:08:27;14.13;;;12.63;;
2320;SDS011;15376;48.540;9.268;2023-10-19T09:11:12;14.10;;;11.70;;
2320;SDS011;15376;48.540;9.268;2023-10-19T09:13:44;14.10;;;12.53;;
2320;SDS011;15376;48.540;9.268;2023-10-19T09:16:18;13.50;;;12.10;;
2320;SDS011;15376;48.540;9.268;2023-10-19T09:18:45;12.90;;;10.80;;
2320;SDS011;15376;48.540;9.268;2023-10-19T09:31:17;17.10;;;11.63;;
2320;SDS011;15376;48.540;9.268;2023-10-19T09:33:44;14.03;;;10.37;;
2320;SDS011;15376;48.540;9.268;2023-10-19T09:36:10;11.07;;;10.00;;
2320;SDS011;15376;48.540;9.268;2023-10-19T09:41:09;11.30;;;10.10;;
2320;SDS011;15376;48.540;9.268;2023-10-19T09:43:37;12.90;;;11.60;;
2320;SDS011;15376;48.540;9.268;2023-10-19T09:46:08;15.03;;;11.70;;
2320;SDS011;15376;48.540;9.268;2023-10-19T09:48:40;13.17;;;11.77;;
2320;SDS011;15376;48.540;9.268;2023-10-19T09:51:07;13.23;;;11.93;;
2320;SDS011;15376;48.540;9.268;2023-10-19T09:53:34;12.70;;;11.50;;
2320;SDS011;15376;48.540;9.268;2023-10-19T09:56:00;14.10;;;12.20;;
2320;SDS011;15376;48.540;9.268;2023-10-19T09:58:31;13.70;;;12.30;;
2320;SDS011;15376;48.540;9.268;2023-10-19T10:01:02;15.30;;;12.60;;
2320;SDS011;15376;48.540;9.268;2023-10-19T10:09:19;13.63;;;12.23;;
2320;SDS011;15376;48.540;9.268;2023-10-19T10:11:48;12.30;;;11.10;;
2320;SDS011;15376;48.540;9.268;2023-10-19T10:14:24;13.40;;;12.00;;
2320;SDS011;15376;48.540;9.268;2023-10-19T10:17:00;12.90;;;11.60;;
2320;SDS011;15376;48.540;9.268;2023-10-19T10:19:30;12.43;;;11.00;;
2320;SDS011;15376;48.540;9.268;2023-10-19T10:22:11;11.60;;;10.40;;
2320;SDS011;15376;48.540;9.268;2023-10-19T10:24:43;13.20;;;11.90;;
2320;SDS011;15376;48.540;9.268;2023-10-19T10:27:09;16.83;;;15.13;;
2320;SDS011;15376;48.540;9.268;2023-10-19T10:29:38;15.77;;;14.27;;
2320;SDS011;15376;48.540;9.268;2023-10-19T10:32:42;13.20;;;12.00;;
2320;SDS011;15376;48.540;9.268;2023-10-19T10:35:10;13.23;;;11.77;;
2320;SDS011;15376;48.540;9.268;2023-10-19T10:37:55;11.73;;;10.63;;
2320;SDS011;15376;48.540;9.268;2023-10-19T10:40:21;10.67;;;9.67;;
2320;SDS011;15376;48.540;9.268;2023-10-19T10:42:46;11.10;;;9.60;;
2320;SDS011;15376;48.540;9.268;2023-10-19T10:45:18;17.73;;;9.40;;
2320;SDS011;15376;48.540;9.268;2023-10-19T10:47:46;18.93;;;10.77;;
2320;SDS011;15376;48.540;9.268;2023-10-19T10:50:11;11.10;;;10.20;;
2320;SDS011;15376;48.540;9.268;2023-10-19T10:52:37;11.80;;;10.57;;
2320;SDS011;15376;48.540;9.268;2023-10-19T10:55:09;11.77;;;10.57;;
2320;SDS011;15376;48.540;9.268;2023-10-19T10:57:36;13.73;;;10.03;;
2320;SDS011;15376;48.540;9.268;2023-10-19T11:00:03;10.70;;;9.77;;
2320;SDS011;15376;48.540;9.268;2023-10-19T11:02:46;11.00;;;10.00;;
2320;SDS011;15376;48.540;9.268;2023-10-19T11:05:12;11.70;;;9.27;;
2320;SDS011;15376;48.540;9.268;2023-10-19T11:08:02;10.60;;;9.27;;
2320;SDS011;15376;48.540;9.268;2023-10-19T11:10:35;10.00;;;8.33;;
2320;SDS011;15376;48.540;9.268;2023-10-19T11:13:05;8.10;;;7.23;;
2320;SDS011;15376;48.540;9.268;2023-10-19T11:15:38;8.53;;;7.83;;
2320;SDS011;15376;48.540;9.268;2023-10-19T11:18:12;11.37;;;9.37;;
2320;SDS011;15376;48.540;9.268;2023-10-19T11:21:08;14.53;;;9.97;;
2320;SDS011;15376;48.540;9.268;2023-10-19T11:23:42;11.07;;;9.93;;
2320;SDS011;15376;48.540;9.268;2023-10-19T11:26:09;13.10;;;10.40;;
2320;SDS011;15376;48.540;9.268;2023-10-19T11:28:38;12.50;;;11.30;;
2320;SDS011;15376;48.540;9.268;2023-10-19T11:31:19;11.73;;;10.73;;
2320;SDS011;15376;48.540;9.268;2023-10-19T11:33:49;12.50;;;11.40;;
2320;SDS011;15376;48.540;9.268;2023-10-19T11:36:18;13.53;;;11.73;;
2320;SDS011;15376;48.540;9.268;2023-10-19T11:38:45;12.87;;;11.50;;
2320;SDS011;15376;48.540;9.268;2023-10-19T11:41:12;14.77;;;13.40;;
2320;SDS011;15376;48.540;9.268;2023-10-19T11:43:42;14.10;;;12.50;;
2320;SDS011;15376;48.540;9.268;2023-10-19T11:46:09;14.50;;;13.10;;
2320;SDS011;15376;48.540;9.268;2023-10-19T11:48:36;13.43;;;12.13;;
2320;SDS011;15376;48.540;9.268;2023-10-19T11:51:02;13.47;;;12.13;;
2320;SDS011;15376;48.540;9.268;2023-10-19T11:53:30;12.30;;;11.20;;
2320;SDS011;15376;48.540;9.268;2023-10-19T11:55:58;13.37;;;11.97;;
2320;SDS011;15376;48.540;9.268;2023-10-19T11:58:25;12.40;;;11.20;;
2320;SDS011;15376;48.540;9.268;2023-10-19T12:00:51;12.03;;;10.73;;
2320;SDS011;15376;48.540;9.268;2023-10-19T12:03:16;14.50;;;12.10;;
2320;SDS011;15376;48.540;9.268;2023-10-19T12:05:43;19.60;;;17.60;;
2320;SDS011;15376;48.540;9.268;2023-10-19T12:08:09;15.10;;;13.53;;
2320;SDS011;15376;48.540;9.268;2023-10-19T12:10:34;15.30;;;13.90;;
2320;SDS011;15376;48.540;9.268;2023-10-19T12:13:03;17.63;;;15.03;;
2320;SDS011;15376;48.540;9.268;2023-10-19T12:15:31;15.70;;;14.03;;
2320;SDS011;15376;48.540;9.268;2023-10-19T12:17:56;14.13;;;12.63;;
2320;SDS011;15376;48.540;9.268;2023-10-19T12:20:22;13.13;;;11.83;;
2320;SDS011;15376;48.540;9.268;2023-10-19T12:22:47;15.27;;;12.83;;
2320;SDS011;15376;48.540;9.268;2023-10-19T12:25:13;13.60;;;12.40;;
2320;SDS011;15376;48.540;9.268;2023-10-19T12:27:39;15.50;;;12.17;;
2320;SDS011;15376;48.540;9.268;2023-10-19T12:30:05;10.73;;;9.63;;
2320;SDS011;15376;48.540;9.268;2023-10-19T12:32:42;11.23;;;10.13;;
2320;SDS011;15376;48.540;9.268;2023-10-19T12:35:07;13.33;;;11.93;;
2320;SDS011;15376;48.540;9.268;2023-10-19T12:37:36;15.23;;;12.13;;
2320;SDS011;15376;48.540;9.268;2023-10-19T12:40:11;12.07;;;10.37;;
2320;SDS011;15376;48.540;9.268;2023-10-19T12:42:51;11.30;;;10.30;;
2320;SDS011;15376;48.540;9.268;2023-10-19T12:45:19;12.80;;;11.67;;
2320;SDS011;15376;48.540;9.268;2023-10-19T12:47:48;12.77;;;11.47;;
2320;SDS011;15376;48.540;9.268;2023-10-19T12:50:13;13.40;;;12.00;;
2320;SDS011;15376;48.540;9.268;2023-10-19T12:52:40;13.37;;;11.13;;
2320;SDS011;15376;48.540;9.268;2023-10-19T12:55:06;12.83;;;11.40;;
2320;SDS011;15376;48.540;9.268;2023-10-19T12:57:33;11.67;;;10.03;;
2320;SDS011;15376;48.540;9.268;2023-10-19T12:59:59;12.33;;;11.13;;
2320;SDS011;15376;48.540;9.268;2023-10-19T13:02:47;12.90;;;8.70;;
2320;SDS011;15376;48.540;9.268;2023-10-19T13:05:12;12.43;;;10.40;;
2320;SDS011;15376;48.540;9.268;2023-10-19T13:07:41;11.23;;;7.80;;
2320;SDS011;15376;48.540;9.268;2023-10-19T13:10:06;7.77;;;7.07;;
2320;SDS011;15376;48.540;9.268;2023-10-19T13:12:32;6.90;;;6.40;;
2320;SDS011;15376;48.540;9.268;2023-10-19T13:14:57;6.50;;;5.90;;
2320;SDS011;15376;48.540;9.268;2023-10-19T13:17:22;6.87;;;6.20;;
2320;SDS011;15376;48.540;9.268;2023-10-19T13:19:49;6.83;;;6.10;;
2320;SDS011;15376;48.540;9.268;2023-10-19T13:22:20;6.60;;;5.90;;
2320;SDS011;15376;48.540;9.268;2023-10-19T13:24:46;6.77;;;6.17;;
2320;SDS011;15376;48.540;9.268;2023-10-19T13:27:12;7.13;;;6.20;;
2320;SDS011;15376;48.540;9.268;2023-10-19T13:29:37;6.10;;;5.40;;
2320;SDS011;15376;48.540;9.268;2023-10-19T13:32:06;6.50;;;4.47;;
2320;SDS011;15376;48.540;9.268;2023-10-19T13:34:31;5.73;;;5.20;;
2320;SDS011;15376;48.540;9.268;2023-10-19T13:36:57;6.93;;;4.73;;
2320;SDS011;15376;48.540;9.268;2023-10-19T13:39:22;5.67;;;4.70;;
2320;SDS011;15376;48.540;9.268;2023-10-19T13:41:50;7.00;;;6.30;;
2320;SDS011;15376;48.540;9.268;2023-10-19T13:44:17;6.50;;;5.80;;
2320;SDS011;15376;48.540;9.268;2023-10-19T13:46:45;8.67;;;7.03;;
2320;SDS011;15376;48.540;9.268;2023-10-19T13:49:16;5.70;;;5.23;;
2320;SDS011;15376;48.540;9.268;2023-10-19T13:51:43;9.20;;;8.23;;
2320;SDS011;15376;48.540;9.268;2023-10-19T13:54:09;5.37;;;4.30;;
2320;SDS011;15376;48.540;9.268;2023-10-19T13:56:34;4.60;;;3.80;;
2320;SDS011;15376;48.540;9.268;2023-10-19T13:59:00;4.43;;;3.73;;
2320;SDS011;15376;48.540;9.268;2023-10-19T14:01:26;4.67;;;4.27;;
2320;SDS011;15376;48.540;9.268;2023-10-19T14:03:53;4.93;;;4.30;;
2320;SDS011;15376;48.540;9.268;2023-10-19T14:06:22;5.97;;;4.77;;
2320;SDS011;15376;48.540;9.268;2023-10-19T14:08:49;5.40;;;4.90;;
2320;SDS011;15376;48.540;9.268;2023-10-19T14:11:14;4.90;;;4.50;;
2320;SDS011;15376;48.540;9.268;2023-10-19T14:13:40;4.83;;;4.43;;
2320;SDS011;15376;48.540;9.268;2023-10-19T14:16:08;5.30;;;4.33;;
2320;SDS011;15376;48.540;9.268;2023-10-19T14:18:34;5.17;;;4.67;;
2320;SDS011;15376;48.540;9.268;2023-10-19T14:21:00;6.60;;;5.53;;
2320;SDS011;15376;48.540;9.268;2023-10-19T14:23:26;7.53;;;6.77;;
2320;SDS011;15376;48.540;9.268;2023-10-19T14:25:52;7.50;;;6.80;;
2320;SDS011;15376;48.540;9.268;2023-10-19T14:28:18;9.43;;;8.47;;
2320;SDS011;15376;48.540;9.268;2023-10-19T14:30:43;11.57;;;10.37;;
2320;SDS011;15376;48.540;9.268;2023-10-19T14:33:10;10.23;;;9.10;;
2320;SDS011;15376;48.540;9.268;2023-10-19T14:35:36;7.93;;;6.80;;
2320;SDS011;15376;48.540;9.268;2023-10-19T14:38:04;7.43;;;6.63;;
2320;SDS011;15376;48.540;9.268;2023-10-19T14:40:31;7.70;;;7.00;;
2320;SDS011;15376;48.540;9.268;2023-10-19T14:42:57;6.57;;;6.00;;
2320;SDS011;15376;48.540;9.268;2023-10-19T14:45:26;6.50;;;5.80;;
2320;SDS011;15376;48.540;9.268;2023-10-19T14:47:56;6.70;;;6.10;;
2320;SDS011;15376;48.540;9.268;2023-10-19T14:50:29;18.57;;;14.27;;
2320;SDS011;15376;48.540;9.268;2023-10-19T14:52:55;8.10;;;7.50;;
2320;SDS011;15376;48.540;9.268;2023-10-19T14:55:20;11.00;;;10.10;;
2320;SDS011;15376;48.540;9.268;2023-10-19T14:57:47;10.03;;;9.03;;
2320;SDS011;15376;48.540;9.268;2023-10-19T15:00:15;9.73;;;8.93;;
2320;SDS011;15376;48.540;9.268;2023-10-19T15:02:51;9.53;;;8.70;;
2320;SDS011;15376;48.540;9.268;2023-10-19T15:05:24;8.83;;;8.13;;